createdAt,value
2019-05-28T00:00:37.148Z,99.90
2019-05-28T00:04:42.483Z,99.90
2019-05-28T00:08:47.480Z,99.90
2019-05-28T00:12:52.462Z,99.90
2019-05-28T00:16:57.439Z,99.90
2019-05-28T00:21:02.787Z,99.90
2019-05-28T00:25:20.557Z,99.90
2019-05-28T00:29:25.505Z,99.90
2019-05-28T00:33:30.443Z,99.90
2019-05-28T00:37:35.458Z,99.90
2019-05-28T00:41:40.452Z,99.90
2019-05-28T00:50:14.876Z,99.90
2019-05-28T00:54:20.099Z,99.90
2019-05-28T00:58:25.666Z,99.90
2019-05-28T01:02:30.763Z,99.90
2019-05-28T01:06:35.798Z,99.90
2019-05-28T01:10:40.762Z,99.90
2019-05-28T01:14:45.758Z,99.90
2019-05-28T01:18:50.814Z,99.90
2019-05-28T03:17:03.315Z,99.90
2019-05-28T03:21:16.327Z,99.90
2019-05-28T03:25:22.862Z,99.90
2019-05-28T03:29:27.948Z,99.90
2019-05-28T03:33:32.955Z,99.90
2019-05-28T03:37:39.850Z,99.90
2019-05-28T03:41:44.783Z,99.90
2019-05-28T03:45:50.094Z,99.90
2019-05-28T03:49:55.200Z,99.90
2019-05-28T03:54:00.087Z,99.90
2019-05-28T03:58:05.678Z,99.90
2019-05-28T04:02:23.073Z,99.90
2019-05-28T04:06:17.236Z,99.90
2019-05-28T04:10:22.229Z,99.90
2019-05-28T04:14:27.168Z,99.90
2019-05-28T04:18:32.112Z,99.90
2019-05-28T04:22:37.249Z,99.90
2019-05-28T04:26:42.198Z,99.90
2019-05-28T04:30:47.072Z,99.90
2019-05-28T04:34:52.028Z,99.90
2019-05-28T04:38:56.943Z,99.90
2019-05-28T04:43:02.280Z,99.90
2019-05-28T04:47:08.910Z,99.90
2019-05-28T04:51:14.048Z,99.90
2019-05-28T04:55:19.037Z,99.90
2019-05-28T04:59:34.131Z,99.90
2019-05-28T05:08:12.683Z,99.90
2019-05-28T05:13:02.126Z,99.90
2019-05-28T05:17:45.577Z,99.90
2019-05-28T05:21:51.959Z,99.90
2019-05-28T05:25:57.188Z,99.90
2019-05-28T05:30:02.569Z,99.90
2019-05-28T05:34:08.896Z,99.90
2019-05-28T05:38:13.937Z,99.90
2019-05-28T05:42:19.104Z,99.90
2019-05-28T05:46:24.233Z,99.90
2019-05-28T05:50:29.460Z,99.90
2019-05-28T05:54:34.363Z,99.90
2019-05-28T05:58:39.258Z,99.90
2019-05-28T06:02:44.614Z,99.90
2019-05-28T06:06:49.711Z,99.90
2019-05-28T06:10:54.702Z,99.90
2019-05-28T06:14:59.745Z,99.90
2019-05-28T06:19:05.306Z,99.90
2019-05-28T06:23:10.439Z,99.90
2019-05-28T06:27:15.439Z,99.90
2019-05-28T06:31:20.369Z,99.90
2019-05-28T06:35:25.332Z,99.90
2019-05-28T06:39:30.317Z,99.90
2019-05-28T06:43:35.462Z,99.90
2019-05-28T06:47:44.968Z,99.90
2019-05-28T06:52:05.145Z,99.90
2019-05-28T07:01:16.555Z,99.90
2019-05-28T07:05:21.661Z,99.90
2019-05-28T07:09:26.819Z,99.90
2019-05-28T07:13:32.051Z,99.90
2019-05-28T07:17:37.631Z,99.90
2019-05-28T07:21:42.949Z,99.90
2019-05-28T07:26:06.772Z,99.90
2019-05-28T07:30:30.081Z,99.90
2019-05-28T07:34:36.451Z,99.90
2019-05-28T07:38:45.591Z,99.90
2019-05-28T07:42:50.880Z,99.90
2019-05-28T07:46:56.136Z,99.90
2019-05-28T07:51:01.643Z,99.90
2019-05-28T07:55:07.595Z,99.90
2019-05-28T07:59:12.662Z,99.90
2019-05-28T08:03:17.717Z,99.90
2019-05-28T08:07:22.712Z,99.90
2019-05-28T08:11:38.285Z,99.90
2019-05-28T08:15:43.305Z,99.90
2019-05-28T08:19:55.776Z,99.90
2019-05-28T08:24:00.865Z,99.90
2019-05-28T08:28:59.693Z,99.90
2019-05-28T08:33:05.338Z,99.90
2019-05-28T08:37:10.281Z,99.90
2019-05-28T08:41:15.450Z,99.90
2019-05-28T08:45:20.811Z,99.90
2019-05-28T08:49:26.405Z,99.90
2019-05-28T08:53:31.278Z,99.90
2019-05-28T08:57:36.641Z,99.90
2019-05-28T09:01:41.684Z,99.90
2019-05-28T09:05:46.759Z,99.90
2019-05-28T09:09:51.715Z,99.90
2019-05-28T09:13:56.637Z,99.90
2019-05-28T09:18:01.950Z,99.90
2019-05-28T09:22:07.688Z,99.90
2019-05-28T09:26:13.079Z,99.90
2019-05-28T09:30:18.833Z,99.90
2019-05-28T09:34:23.710Z,99.90
2019-05-28T09:50:34.525Z,99.90
2019-05-28T09:59:43.863Z,99.90
2019-05-28T10:03:48.954Z,99.90
2019-05-28T10:07:54.536Z,99.90
2019-05-28T10:11:59.533Z,99.90
2019-05-28T10:16:05.852Z,99.90
2019-05-28T10:20:11.747Z,98.20
2019-05-28T10:24:21.022Z,98.40
2019-05-28T10:28:26.147Z,98.40
2019-05-28T10:32:31.087Z,95.20
2019-05-28T10:36:38.036Z,93.60
2019-05-28T10:40:42.895Z,91.90
2019-05-28T10:44:48.132Z,90.10
2019-05-28T10:48:53.205Z,90.90
2019-05-28T10:52:58.142Z,91.50
2019-05-28T10:57:03.112Z,92.50
2019-05-28T11:01:08.289Z,87.70
2019-05-28T11:05:14.281Z,85.90
2019-05-28T11:09:19.530Z,82.90
2019-05-28T11:13:24.681Z,80.80
2019-05-28T11:17:29.646Z,86.10
2019-05-28T11:21:34.682Z,84.80
2019-05-28T11:25:39.653Z,82.30
2019-05-28T11:29:44.731Z,81.60
2019-05-28T11:33:50.871Z,81.60
2019-05-28T11:37:55.897Z,76.30
2019-05-28T11:42:00.898Z,76.20
2019-05-28T11:46:06.666Z,75.20
2019-05-28T11:50:17.080Z,75.90
2019-05-28T11:54:22.233Z,74.70
2019-05-28T11:58:27.219Z,72.30
2019-05-28T12:02:32.161Z,75.60
2019-05-28T12:06:38.334Z,75.80
2019-05-28T12:10:43.573Z,73.00
2019-05-28T12:14:48.544Z,73.80
2019-05-28T12:18:53.632Z,75.10
2019-05-28T12:23:10.445Z,77.50
2019-05-28T12:27:05.320Z,77.10
2019-05-28T12:31:10.269Z,79.80
2019-05-28T12:39:47.363Z,82.60
2019-05-28T12:49:02.164Z,78.60
2019-05-28T12:53:08.138Z,78.20
2019-05-28T12:57:13.101Z,76.70
2019-05-28T13:01:18.142Z,73.30
2019-05-28T13:05:25.525Z,73.20
2019-05-28T13:09:38.751Z,75.30
2019-05-28T13:13:43.898Z,69.10
2019-05-28T13:17:49.160Z,64.70
2019-05-28T13:21:54.062Z,64.90
2019-05-28T13:25:58.978Z,65.50
2019-05-28T13:30:04.620Z,62.30
2019-05-28T13:34:09.653Z,55.20
2019-05-28T13:38:26.381Z,61.70
2019-05-28T13:42:21.391Z,52.90
2019-05-28T13:46:26.478Z,53.30
2019-05-28T13:50:33.082Z,53.30
2019-05-28T13:54:38.024Z,53.70
2019-05-28T13:58:43.066Z,59.50
2019-05-28T14:02:48.236Z,63.20
2019-05-28T14:06:53.137Z,64.60
2019-05-28T14:10:58.050Z,55.90
2019-05-28T14:15:03.478Z,56.30
2019-05-28T14:19:09.051Z,57.40
2019-05-28T14:23:13.922Z,54.60
2019-05-28T14:27:18.942Z,61.00
2019-05-28T14:31:23.897Z,58.90
2019-05-28T14:35:29.414Z,55.80
2019-05-28T14:39:41.064Z,55.50
2019-05-28T14:43:40.884Z,55.90
2019-05-28T14:47:45.976Z,58.10
2019-05-28T14:51:50.916Z,58.60
2019-05-28T14:55:56.194Z,53.80
2019-05-28T15:00:01.148Z,54.00
2019-05-28T15:04:06.706Z,59.80
2019-05-28T15:08:11.799Z,64.40
2019-05-28T15:12:16.711Z,65.90
2019-05-28T15:16:21.792Z,64.10
2019-05-28T15:20:26.890Z,63.70
2019-05-28T15:24:31.859Z,74.10
2019-05-28T15:28:36.978Z,72.70
2019-05-28T15:32:42.007Z,73.20
2019-05-28T15:36:47.020Z,70.50
2019-05-28T15:40:51.950Z,74.80
2019-05-28T15:44:56.915Z,79.40
2019-05-28T15:49:01.941Z,77.00
2019-05-28T15:53:07.286Z,79.10
2019-05-28T15:57:12.187Z,75.20
2019-05-28T16:01:17.336Z,77.40
2019-05-28T16:05:24.089Z,73.60
2019-05-28T16:09:28.990Z,70.30
2019-05-28T16:13:34.038Z,71.80
2019-05-28T16:17:39.048Z,70.50
2019-05-28T16:21:43.941Z,70.20
2019-05-28T16:25:48.903Z,70.40
2019-05-28T16:29:53.836Z,71.30
2019-05-28T16:33:58.799Z,74.10
2019-05-28T16:38:03.754Z,73.90
2019-05-28T16:42:08.727Z,75.40
2019-05-28T16:46:16.047Z,77.90
2019-05-28T16:50:21.419Z,78.10
2019-05-28T16:54:26.417Z,76.90
2019-05-28T16:58:31.563Z,78.10
2019-05-28T17:02:37.056Z,80.60
2019-05-28T17:06:42.036Z,82.00
2019-05-28T17:10:46.958Z,85.80
2019-05-28T17:15:00.248Z,90.20
2019-05-28T17:19:06.215Z,91.00
2019-05-28T17:23:11.520Z,92.20
2019-05-28T17:27:16.831Z,93.10
2019-05-28T17:31:21.945Z,94.40
2019-05-28T17:35:26.990Z,94.20
2019-05-28T17:39:32.086Z,96.30
2019-05-28T17:43:37.123Z,95.60
2019-05-28T17:47:45.300Z,96.00
2019-05-28T17:51:50.313Z,96.30
2019-05-28T17:55:58.083Z,97.20
2019-05-28T18:00:03.107Z,98.00
2019-05-28T18:04:08.927Z,98.00
2019-05-28T18:08:14.017Z,98.90
2019-05-28T18:12:19.039Z,99.90
2019-05-28T18:16:27.746Z,99.40
2019-05-28T18:20:32.786Z,99.90
2019-05-28T18:24:37.704Z,99.90
2019-05-28T18:28:43.002Z,99.90
2019-05-28T18:32:47.992Z,99.90
2019-05-28T18:36:52.917Z,99.90
2019-05-28T18:40:58.052Z,99.90
2019-05-28T18:45:03.431Z,99.90
2019-05-28T18:49:11.827Z,99.90
2019-05-28T18:53:16.719Z,99.90
2019-05-28T18:57:21.644Z,99.90
2019-05-28T19:01:26.627Z,99.90
2019-05-28T19:05:31.594Z,99.90
2019-05-28T19:09:39.042Z,99.90
2019-05-28T19:13:48.106Z,99.90
2019-05-28T19:17:54.524Z,99.90
2019-05-28T19:21:59.872Z,99.90
2019-05-28T19:26:08.267Z,99.90
2019-05-28T19:34:54.650Z,99.90
2019-05-28T19:39:00.117Z,99.90
2019-05-28T19:43:05.954Z,99.90
2019-05-28T19:47:11.762Z,99.90
2019-05-28T19:51:16.813Z,99.90
2019-05-28T19:55:21.969Z,99.90
2019-05-28T19:59:27.305Z,99.90
2019-05-28T20:03:33.112Z,99.90
2019-05-28T20:07:38.425Z,99.90
2019-05-28T20:11:43.935Z,99.90
2019-05-28T20:15:48.915Z,99.90
2019-05-28T20:19:54.521Z,99.90
2019-05-28T20:23:59.867Z,99.90
2019-05-28T20:28:05.231Z,99.90
2019-05-28T20:32:12.258Z,99.90
2019-05-28T20:36:18.708Z,99.90
2019-05-28T20:40:25.281Z,99.90
2019-05-28T20:44:31.591Z,99.90
2019-05-28T20:48:38.134Z,99.90
2019-05-28T20:52:43.263Z,99.90
2019-05-28T20:56:50.372Z,99.90
2019-05-28T21:00:55.663Z,99.90
2019-05-28T21:05:00.623Z,99.90
2019-05-28T21:09:07.852Z,99.90
2019-05-28T21:13:12.838Z,99.90
2019-05-28T21:17:17.916Z,99.90
2019-05-28T21:21:22.827Z,99.90
2019-05-28T21:25:27.700Z,99.90
2019-05-28T21:29:32.704Z,99.90
2019-05-28T21:33:37.682Z,99.90
2019-05-28T21:37:44.127Z,99.90
2019-05-28T21:41:49.145Z,99.90
2019-05-28T21:45:54.138Z,99.90
2019-05-28T21:49:59.578Z,99.90
2019-05-28T21:54:06.131Z,99.90
2019-05-28T21:58:11.195Z,99.90
2019-05-28T22:02:16.114Z,99.90
2019-05-28T22:06:21.023Z,99.90
2019-05-28T22:10:25.975Z,99.90
2019-05-28T22:14:30.904Z,99.90
2019-05-28T22:18:35.842Z,99.90
2019-05-28T22:22:40.771Z,99.90
2019-05-28T22:26:45.690Z,99.90
2019-05-28T22:30:50.762Z,99.90
2019-05-28T22:34:55.856Z,99.90
2019-05-28T22:39:08.908Z,99.90
2019-05-28T22:43:14.272Z,99.90
2019-05-28T22:47:19.218Z,99.90
2019-05-28T22:51:24.718Z,99.90
2019-05-28T22:55:30.091Z,99.90
2019-05-28T22:59:36.449Z,99.90
2019-05-28T23:03:41.561Z,99.90
2019-05-28T23:07:46.456Z,99.90
2019-05-28T23:11:51.657Z,99.90
2019-05-28T23:15:56.561Z,99.90
2019-05-28T23:20:02.874Z,99.90
2019-05-28T23:24:09.334Z,99.90
2019-05-28T23:28:14.325Z,99.90
2019-05-28T23:32:19.222Z,99.90
2019-05-28T23:36:24.111Z,99.90
2019-05-28T23:40:29.018Z,99.90
2019-05-28T23:44:34.022Z,99.90
2019-05-28T23:48:39.028Z,99.90
2019-05-28T23:52:44.010Z,99.90
2019-05-28T23:56:49.117Z,99.90
